createdAt,value
2018-05-12T00:00:32.555Z,21.60
2018-05-12T00:02:58.488Z,20.73
2018-05-12T00:05:24.462Z,19.00
2018-05-12T00:07:51.148Z,19.50
2018-05-12T00:10:17.119Z,21.37
2018-05-12T00:12:43.828Z,21.10
2018-05-12T00:15:09.791Z,21.85
2018-05-12T00:17:35.756Z,21.83
2018-05-12T00:20:01.710Z,22.33
2018-05-12T00:22:27.666Z,21.83
2018-05-12T00:24:53.606Z,20.60
2018-05-12T00:27:19.581Z,20.50
2018-05-12T00:29:45.528Z,20.60
2018-05-12T00:32:12.222Z,20.10
2018-05-12T00:34:38.206Z,21.08
2018-05-12T00:37:04.191Z,19.48
2018-05-12T00:39:30.903Z,21.47
2018-05-12T00:41:56.893Z,21.67
2018-05-12T00:44:22.858Z,20.00
2018-05-12T00:46:48.866Z,20.70
2018-05-12T00:49:14.840Z,21.65
2018-05-12T00:51:40.816Z,20.45
2018-05-12T00:54:06.784Z,21.80
2018-05-12T00:56:32.744Z,21.47
2018-05-12T00:58:58.718Z,21.70
2018-05-12T01:01:25.405Z,21.27
2018-05-12T01:03:51.359Z,22.25
2018-05-12T01:06:17.311Z,21.37
2018-05-12T01:08:44.006Z,22.10
2018-05-12T01:11:09.946Z,23.20
2018-05-12T01:13:35.951Z,23.23
2018-05-12T01:16:01.892Z,23.77
2018-05-12T01:18:27.917Z,22.30
2018-05-12T01:20:53.878Z,21.50
2018-05-12T01:23:19.829Z,22.20
2018-05-12T01:25:45.809Z,22.00
2018-05-12T01:28:11.755Z,22.40
2018-05-12T01:30:37.732Z,20.90
2018-05-12T01:33:04.424Z,22.13
2018-05-12T01:35:30.391Z,23.52
2018-05-12T01:37:57.079Z,22.30
2018-05-12T01:40:23.063Z,23.00
2018-05-12T01:42:49.748Z,22.93
2018-05-12T01:45:15.723Z,22.48
2018-05-12T01:47:42.430Z,22.60
2018-05-12T01:50:08.408Z,21.98
2018-05-12T01:52:34.366Z,23.83
2018-05-12T01:55:00.330Z,23.53
2018-05-12T01:57:27.027Z,23.13
2018-05-12T01:59:53.011Z,21.40
2018-05-12T02:02:18.977Z,23.42
2018-05-12T02:04:44.935Z,22.80
2018-05-12T02:07:11.631Z,23.00
2018-05-12T02:09:37.595Z,22.27
2018-05-12T02:12:04.296Z,23.07
2018-05-12T02:14:30.275Z,24.12
2018-05-12T02:16:56.227Z,22.83
2018-05-12T02:19:22.172Z,23.30
2018-05-12T02:21:48.147Z,24.27
2018-05-12T02:24:14.123Z,21.87
2018-05-12T02:26:40.068Z,25.00
2018-05-12T02:29:06.780Z,26.43
2018-05-12T02:31:32.698Z,27.50
2018-05-12T02:33:58.659Z,26.10
2018-05-12T02:36:25.346Z,26.70
2018-05-12T02:38:51.318Z,26.67
2018-05-12T02:41:17.263Z,26.67
2018-05-12T02:43:43.238Z,25.80
2018-05-12T02:46:09.198Z,25.13
2018-05-12T02:48:35.136Z,26.13
2018-05-12T02:51:01.099Z,25.60
2018-05-12T02:53:27.052Z,25.53
2018-05-12T02:55:53.749Z,23.80
2018-05-12T02:58:19.691Z,22.87
2018-05-12T03:00:45.646Z,22.30
2018-05-12T03:03:11.582Z,22.33
2018-05-12T03:05:37.550Z,20.73
2018-05-12T03:08:03.482Z,24.30
2018-05-12T03:10:30.158Z,24.90
2018-05-12T03:12:56.137Z,26.80
2018-05-12T03:15:22.123Z,27.30
2018-05-12T03:17:48.113Z,27.20
2018-05-12T03:20:14.065Z,29.25
2018-05-12T03:22:40.114Z,30.20
2018-05-12T03:25:05.990Z,28.05
2018-05-12T03:27:31.938Z,28.07
2018-05-12T03:29:57.886Z,27.70
2018-05-12T03:32:23.846Z,27.90
2018-05-12T03:34:49.814Z,26.83
2018-05-12T03:37:15.785Z,26.67
2018-05-12T03:39:41.730Z,26.83
2018-05-12T03:42:08.435Z,27.13
2018-05-12T03:44:35.126Z,26.73
2018-05-12T03:47:01.112Z,26.75
2018-05-12T03:49:27.082Z,26.70
2018-05-12T03:51:53.066Z,26.33
2018-05-12T03:54:19.008Z,26.52
2018-05-12T03:56:44.968Z,26.63
2018-05-12T03:59:10.927Z,24.80
2018-05-12T04:01:36.878Z,26.20
2018-05-12T04:04:02.845Z,25.53
2018-05-12T04:06:29.543Z,28.57
2018-05-12T04:08:55.542Z,27.20
2018-05-12T04:11:21.483Z,29.35
2018-05-12T04:13:47.465Z,28.17
2018-05-12T04:16:13.421Z,29.02
2018-05-12T04:18:39.386Z,29.73
2018-05-12T04:21:05.433Z,29.47
2018-05-12T04:23:31.326Z,30.57
2018-05-12T04:25:57.277Z,30.80
2018-05-12T04:28:23.215Z,30.37
2018-05-12T04:30:49.193Z,32.10
2018-05-12T04:33:15.890Z,31.55
2018-05-12T04:35:41.864Z,33.35
2018-05-12T04:38:08.558Z,33.17
2018-05-12T04:40:34.518Z,34.05
2018-05-12T04:43:00.467Z,34.10
2018-05-12T04:45:26.423Z,35.70
2018-05-12T04:47:52.387Z,33.90
2018-05-12T04:50:18.321Z,36.33
2018-05-12T04:52:45.040Z,34.10
2018-05-12T04:55:11.006Z,34.92
2018-05-12T04:57:36.990Z,34.70
2018-05-12T05:00:03.695Z,32.75
2018-05-12T05:02:29.677Z,33.60
2018-05-12T05:04:55.626Z,32.70
2018-05-12T05:07:21.603Z,32.40
2018-05-12T05:09:48.306Z,33.87
2018-05-12T05:12:14.285Z,35.15
2018-05-12T05:14:40.259Z,35.60
2018-05-12T05:17:06.234Z,37.00
2018-05-12T05:19:32.190Z,35.20
2018-05-12T05:21:58.190Z,36.20
2018-05-12T05:24:24.150Z,36.63
2018-05-12T05:26:50.094Z,35.33
2018-05-12T05:29:16.070Z,35.10
2018-05-12T05:31:42.027Z,36.13
2018-05-12T05:34:08.007Z,35.10
2018-05-12T05:36:33.957Z,37.53
2018-05-12T05:38:59.915Z,36.50
2018-05-12T05:41:26.605Z,37.03
2018-05-12T05:43:52.584Z,36.60
2018-05-12T05:46:19.266Z,40.00
2018-05-12T05:48:45.215Z,36.88
2018-05-12T05:51:11.178Z,38.67
2018-05-12T05:53:37.114Z,39.10
2018-05-12T05:56:03.082Z,39.50
2018-05-12T05:58:29.092Z,39.33
2018-05-12T06:00:55.012Z,39.87
2018-05-12T06:03:20.962Z,39.80
2018-05-12T06:05:47.682Z,38.03
2018-05-12T06:08:13.659Z,37.30
2018-05-12T06:10:39.606Z,38.67
2018-05-12T06:13:05.582Z,37.27
2018-05-12T06:15:32.263Z,38.13
2018-05-12T06:17:58.319Z,39.60
2018-05-12T06:20:24.204Z,38.00
2018-05-12T06:22:50.235Z,37.73
2018-05-12T06:25:16.193Z,37.03
2018-05-12T06:27:42.149Z,36.60
2018-05-12T06:30:08.099Z,38.10
2018-05-12T06:32:34.062Z,35.93
2018-05-12T06:35:00.755Z,36.47
2018-05-12T06:37:26.714Z,37.13
2018-05-12T06:39:52.679Z,36.83
2018-05-12T06:42:18.629Z,36.30
2018-05-12T06:44:44.614Z,36.10
2018-05-12T06:47:10.581Z,35.53
2018-05-12T06:49:36.558Z,34.87
2018-05-12T06:52:02.514Z,34.83
2018-05-12T06:54:28.496Z,38.03
2018-05-12T06:56:54.451Z,34.80
2018-05-12T06:59:20.448Z,36.70
2018-05-12T07:01:46.378Z,35.47
2018-05-12T07:04:12.361Z,34.60
2018-05-12T07:06:39.039Z,35.77
2018-05-12T07:09:05.017Z,34.97
2018-05-12T07:11:31.001Z,35.03
2018-05-12T07:13:56.967Z,37.53
2018-05-12T07:16:22.947Z,35.43
2018-05-12T07:18:48.902Z,34.50
2018-05-12T07:21:14.884Z,34.73
2018-05-12T07:23:40.818Z,34.10
2018-05-12T07:26:06.772Z,34.87
2018-05-12T07:28:32.734Z,33.23
2018-05-12T07:30:58.690Z,33.10
2018-05-12T07:33:24.667Z,33.93
2018-05-12T07:35:51.396Z,32.80
2018-05-12T07:38:18.170Z,32.22
2018-05-12T07:40:44.102Z,33.97
2018-05-12T07:43:10.076Z,34.90
2018-05-12T07:45:36.858Z,32.30
2018-05-12T07:48:02.767Z,30.55
2018-05-12T07:50:28.714Z,33.23
2018-05-12T07:52:54.673Z,33.60
2018-05-12T07:55:20.606Z,33.20
2018-05-12T07:57:47.330Z,32.90
2018-05-12T08:00:13.296Z,32.05
2018-05-12T08:02:39.267Z,31.20
2018-05-12T08:05:05.244Z,30.17
2018-05-12T08:07:31.191Z,31.37
2018-05-12T08:09:57.187Z,31.47
2018-05-12T08:12:23.141Z,31.83
2018-05-12T08:14:49.107Z,30.53
2018-05-12T08:17:15.803Z,30.27
2018-05-12T08:19:41.761Z,29.65
2018-05-12T08:22:08.451Z,29.80
2018-05-12T08:24:34.450Z,26.85
2018-05-12T08:27:00.415Z,29.77
2018-05-12T08:29:26.420Z,28.53
2018-05-12T08:31:52.392Z,27.42
2018-05-12T08:34:19.102Z,28.10
2018-05-12T08:36:45.074Z,25.98
2018-05-12T08:39:11.051Z,26.50
2018-05-12T08:41:37.056Z,28.07
2018-05-12T08:44:03.005Z,27.10
2018-05-12T08:46:28.985Z,25.40
2018-05-12T08:48:54.983Z,25.43
2018-05-12T08:51:20.919Z,24.17
2018-05-12T08:53:46.874Z,25.70
2018-05-12T08:56:12.877Z,24.83
2018-05-12T08:58:38.832Z,26.17
2018-05-12T09:01:04.809Z,24.57
2018-05-12T09:03:30.775Z,24.97
2018-05-12T09:05:56.764Z,23.77
2018-05-12T09:08:22.735Z,22.53
2018-05-12T09:10:48.691Z,20.87
2018-05-12T09:13:14.665Z,22.20
2018-05-12T09:15:40.628Z,21.50
2018-05-12T09:18:06.563Z,20.77
2018-05-12T09:20:32.555Z,17.97
2018-05-12T09:22:59.255Z,19.03
2018-05-12T09:25:25.230Z,19.40
2018-05-12T09:27:51.166Z,18.53
2018-05-12T09:30:17.136Z,19.60
2018-05-12T09:32:43.071Z,18.40
2018-05-12T09:35:09.754Z,17.33
2018-05-12T09:37:35.740Z,16.17
2018-05-12T09:40:01.696Z,16.50
2018-05-12T09:42:27.738Z,16.30
2018-05-12T09:44:53.743Z,19.90
2018-05-12T09:47:19.710Z,20.57
2018-05-12T09:49:45.651Z,19.77
2018-05-12T09:52:12.382Z,17.03
2018-05-12T09:54:39.082Z,17.00
2018-05-12T09:57:05.051Z,16.87
2018-05-12T09:59:31.854Z,17.90
2018-05-12T10:01:58.486Z,17.00
2018-05-12T10:04:24.467Z,16.60
2018-05-12T10:06:50.446Z,16.20
2018-05-12T10:09:16.419Z,17.50
2018-05-12T10:11:42.409Z,17.13
2018-05-12T10:14:08.447Z,15.00
2018-05-12T10:16:34.415Z,18.40
2018-05-12T10:19:00.404Z,15.73
2018-05-12T10:21:26.362Z,15.03
2018-05-12T10:23:52.399Z,14.23
2018-05-12T10:26:18.383Z,16.37
2018-05-12T10:28:44.363Z,13.70
2018-05-12T10:31:10.324Z,14.43
2018-05-12T10:33:36.267Z,13.40
2018-05-12T10:36:02.246Z,13.27
2018-05-12T10:38:28.978Z,14.83
2018-05-12T10:40:55.674Z,12.90
2018-05-12T10:43:21.632Z,12.87
2018-05-12T10:45:47.606Z,13.60
2018-05-12T10:48:13.552Z,11.70
2018-05-12T10:50:39.543Z,14.60
2018-05-12T10:53:05.498Z,15.50
2018-05-12T10:55:31.487Z,15.33
2018-05-12T10:57:57.437Z,13.20
2018-05-12T11:00:23.441Z,10.70
2018-05-12T11:02:49.395Z,11.60
2018-05-12T11:05:15.361Z,12.63
2018-05-12T11:07:41.305Z,11.60
2018-05-12T11:10:07.278Z,11.93
2018-05-12T11:12:33.253Z,11.80
2018-05-12T11:15:01.200Z,11.50
2018-05-12T11:17:27.169Z,9.93
2018-05-12T11:19:53.103Z,9.33
2018-05-12T11:22:19.095Z,10.03
2018-05-12T11:24:45.056Z,8.50
2018-05-12T11:27:11.056Z,10.90
2018-05-12T11:29:37.018Z,8.97
2018-05-12T11:32:03.795Z,8.90
2018-05-12T11:34:29.782Z,8.93
2018-05-12T11:36:56.484Z,9.60
2018-05-12T11:39:22.470Z,8.43
2018-05-12T11:41:48.434Z,8.87
2018-05-12T11:44:14.400Z,8.60
2018-05-12T11:46:41.086Z,8.33
2018-05-12T11:49:07.074Z,7.27
2018-05-12T11:51:33.037Z,6.37
2018-05-12T11:53:59.091Z,8.70
2018-05-12T11:56:24.966Z,7.47
2018-05-12T11:58:50.914Z,7.03
2018-05-12T12:01:16.893Z,7.27
2018-05-12T12:03:42.849Z,6.40
2018-05-12T12:06:08.846Z,7.77
2018-05-12T12:08:34.843Z,7.53
2018-05-12T12:11:00.802Z,6.50
2018-05-12T12:13:26.766Z,6.07
2018-05-12T12:15:53.503Z,7.67
2018-05-12T12:18:20.214Z,5.90
2018-05-12T12:20:46.204Z,4.90
2018-05-12T12:23:12.163Z,5.97
2018-05-12T12:25:38.139Z,5.07
2018-05-12T12:28:04.140Z,5.07
2018-05-12T12:30:30.843Z,6.20
2018-05-12T12:32:56.875Z,5.50
2018-05-12T12:35:22.847Z,4.63
2018-05-12T12:37:48.811Z,4.50
2018-05-12T12:40:14.758Z,4.70
2018-05-12T12:42:40.744Z,4.53
2018-05-12T12:45:06.716Z,4.50
2018-05-12T12:47:33.431Z,4.23
2018-05-12T12:49:59.390Z,4.23
2018-05-12T12:52:25.378Z,4.50
2018-05-12T12:54:51.330Z,4.30
2018-05-12T12:57:17.291Z,3.73
2018-05-12T12:59:43.255Z,4.33
2018-05-12T13:02:09.221Z,4.07
2018-05-12T13:04:35.205Z,4.47
2018-05-12T13:07:01.910Z,4.40
2018-05-12T13:09:27.883Z,4.23
2018-05-12T13:11:53.848Z,3.60
2018-05-12T13:14:19.834Z,4.17
2018-05-12T13:16:45.811Z,4.07
2018-05-12T13:19:11.803Z,4.27
2018-05-12T13:21:37.840Z,4.13
2018-05-12T13:24:04.524Z,3.70
2018-05-12T13:26:31.239Z,3.80
2018-05-12T13:28:57.203Z,3.93
2018-05-12T13:31:23.164Z,4.57
2018-05-12T13:33:49.139Z,4.30
2018-05-12T13:36:15.843Z,4.70
2018-05-12T13:38:41.869Z,3.90
2018-05-12T13:41:07.823Z,4.00
2018-05-12T13:43:34.536Z,4.03
2018-05-12T13:46:01.288Z,3.70
2018-05-12T13:48:27.255Z,3.30
2018-05-12T13:50:53.250Z,3.40
2018-05-12T13:53:19.194Z,3.57
2018-05-12T13:55:45.256Z,3.70
2018-05-12T13:58:11.859Z,3.67
2018-05-12T14:00:37.839Z,3.63
2018-05-12T14:03:04.543Z,3.43
2018-05-12T14:05:30.537Z,3.53
2018-05-12T14:07:56.486Z,3.43
2018-05-12T14:10:22.474Z,3.37
2018-05-12T14:12:48.466Z,4.10
2018-05-12T14:15:15.168Z,3.47
2018-05-12T14:17:41.152Z,3.70
2018-05-12T14:20:07.106Z,3.70
2018-05-12T14:22:33.080Z,4.10
2018-05-12T14:24:59.804Z,3.80
2018-05-12T14:27:25.783Z,3.87
2018-05-12T14:29:51.730Z,4.03
2018-05-12T14:32:17.686Z,3.93
2018-05-12T14:34:44.408Z,3.90
2018-05-12T14:37:10.356Z,3.87
2018-05-12T14:39:36.348Z,3.20
2018-05-12T14:42:02.295Z,3.47
2018-05-12T14:44:29.003Z,4.10
2018-05-12T14:46:54.955Z,3.37
2018-05-12T14:49:20.982Z,4.20
2018-05-12T14:51:46.927Z,3.10
2018-05-12T14:54:12.898Z,3.30
2018-05-12T14:56:38.864Z,3.07
2018-05-12T14:59:04.830Z,3.60
2018-05-12T15:01:30.786Z,4.33
2018-05-12T15:03:57.474Z,5.17
2018-05-12T15:06:23.469Z,3.67
2018-05-12T15:08:49.451Z,3.93
2018-05-12T15:11:15.410Z,3.70
2018-05-12T15:13:41.342Z,5.60
2018-05-12T15:16:07.313Z,4.00
2018-05-12T15:18:33.255Z,3.73
2018-05-12T15:20:59.959Z,5.10
2018-05-12T15:23:25.914Z,4.47
2018-05-12T15:25:52.626Z,4.00
2018-05-12T15:28:18.591Z,3.87
2018-05-12T15:30:44.549Z,4.13
2018-05-12T15:33:10.534Z,4.37
2018-05-12T15:35:37.203Z,4.30
2018-05-12T15:38:03.193Z,4.77
2018-05-12T15:40:29.894Z,4.60
2018-05-12T15:42:55.889Z,4.93
2018-05-12T15:45:21.867Z,4.97
2018-05-12T15:47:48.570Z,5.90
2018-05-12T15:50:14.506Z,6.57
2018-05-12T15:52:40.519Z,5.20
2018-05-12T15:55:06.499Z,4.83
2018-05-12T15:57:32.479Z,4.47
2018-05-12T15:59:58.446Z,4.63
2018-05-12T16:02:24.422Z,4.53
2018-05-12T16:04:50.382Z,4.77
2018-05-12T16:07:16.318Z,4.70
2018-05-12T16:09:42.311Z,4.93
